createdAt,value
2017-11-30T00:00:01.078Z,31.50
2017-11-30T00:02:28.731Z,29.80
2017-11-30T00:04:57.174Z,32.90
2017-11-30T00:07:24.745Z,33.83
2017-11-30T00:09:52.394Z,33.90
2017-11-30T00:12:20.129Z,34.15
2017-11-30T00:14:47.793Z,36.05
2017-11-30T00:17:16.140Z,32.80
2017-11-30T00:19:43.784Z,33.85
2017-11-30T00:22:11.440Z,31.58
2017-11-30T00:24:39.040Z,34.55
2017-11-30T00:27:06.682Z,34.58
2017-11-30T00:29:35.247Z,29.65
2017-11-30T00:32:02.978Z,29.48
2017-11-30T00:34:30.589Z,29.63
2017-11-30T00:37:03.965Z,31.12
2017-11-30T00:39:31.602Z,33.38
2017-11-30T00:41:59.225Z,36.80
2017-11-30T00:44:41.531Z,35.35
2017-11-30T00:47:09.130Z,33.28
2017-11-30T00:49:36.725Z,34.08
2017-11-30T00:52:04.317Z,31.62
2017-11-30T00:54:31.903Z,33.95
2017-11-30T00:57:00.326Z,33.17
2017-11-30T00:59:27.967Z,33.25
2017-11-30T01:01:55.635Z,32.45
2017-11-30T01:04:23.279Z,32.33
2017-11-30T01:06:51.009Z,32.10
2017-11-30T01:09:20.389Z,29.85
2017-11-30T01:11:48.037Z,31.30
2017-11-30T01:14:16.647Z,31.52
2017-11-30T01:16:44.300Z,33.40
2017-11-30T01:19:11.915Z,33.28
2017-11-30T01:21:39.562Z,30.55
2017-11-30T01:24:07.202Z,28.67
2017-11-30T01:26:35.260Z,35.85
2017-11-30T01:29:02.847Z,32.38
2017-11-30T01:31:31.443Z,33.22
2017-11-30T01:34:00.167Z,34.75
2017-11-30T01:36:28.614Z,32.30
2017-11-30T01:38:56.267Z,33.22
2017-11-30T01:41:24.643Z,36.63
2017-11-30T01:43:52.246Z,30.00
2017-11-30T01:46:19.853Z,31.23
2017-11-30T01:48:47.496Z,34.67
2017-11-30T01:51:15.085Z,34.38
2017-11-30T01:53:43.083Z,36.28
2017-11-30T01:56:10.725Z,34.00
2017-11-30T01:58:38.409Z,32.53
2017-11-30T02:01:06.090Z,33.55
2017-11-30T02:03:33.746Z,33.83
2017-11-30T02:06:01.388Z,38.22
2017-11-30T02:08:28.987Z,34.50
2017-11-30T02:10:56.603Z,33.40
2017-11-30T02:13:24.270Z,32.58
2017-11-30T02:15:51.903Z,30.35
2017-11-30T02:18:20.257Z,30.40
2017-11-30T02:20:47.934Z,30.70
2017-11-30T02:23:15.612Z,35.78
2017-11-30T02:25:44.035Z,27.65
2017-11-30T02:28:11.767Z,35.13
2017-11-30T02:30:39.462Z,30.80
2017-11-30T02:33:07.826Z,31.90
2017-11-30T02:35:36.360Z,30.30
2017-11-30T02:38:04.083Z,29.20
2017-11-30T02:40:31.800Z,30.10
2017-11-30T02:42:59.811Z,30.15
2017-11-30T02:45:27.545Z,34.15
2017-11-30T02:47:56.757Z,31.37
2017-11-30T02:50:24.479Z,32.97
2017-11-30T02:52:52.132Z,31.42
2017-11-30T02:55:19.805Z,32.85
2017-11-30T02:57:47.483Z,35.15
2017-11-30T03:00:15.104Z,31.77
2017-11-30T03:02:42.895Z,34.53
2017-11-30T03:05:10.555Z,30.98
2017-11-30T03:07:38.361Z,29.63
2017-11-30T03:10:06.726Z,29.73
2017-11-30T03:12:35.344Z,31.95
2017-11-30T03:15:03.110Z,34.55
2017-11-30T03:17:30.761Z,31.20
2017-11-30T03:19:58.706Z,32.08
2017-11-30T03:22:26.379Z,34.20
2017-11-30T03:24:54.636Z,29.52
2017-11-30T03:27:23.018Z,30.98
2017-11-30T03:29:51.440Z,30.95
2017-11-30T03:32:19.144Z,33.15
2017-11-30T03:34:46.777Z,30.70
2017-11-30T03:37:14.523Z,33.72
2017-11-30T03:39:42.190Z,33.90
2017-11-30T03:42:10.993Z,36.58
2017-11-30T03:44:38.674Z,36.75
2017-11-30T03:47:06.318Z,32.35
2017-11-30T03:49:33.948Z,36.17
2017-11-30T03:52:01.639Z,36.92
2017-11-30T03:54:29.275Z,38.05
2017-11-30T03:56:57.793Z,37.47
2017-11-30T03:59:26.214Z,37.22
2017-11-30T04:01:53.882Z,40.17
2017-11-30T04:04:21.532Z,38.38
2017-11-30T04:06:49.159Z,34.15
2017-11-30T04:09:16.798Z,32.90
2017-11-30T04:11:44.375Z,40.55
2017-11-30T04:14:11.999Z,35.50
2017-11-30T04:16:39.884Z,38.30
2017-11-30T04:19:07.526Z,36.38
2017-11-30T04:21:35.174Z,31.83
2017-11-30T04:24:02.787Z,33.92
2017-11-30T04:26:31.010Z,36.30
2017-11-30T04:28:58.670Z,36.75
2017-11-30T04:31:26.371Z,37.15
2017-11-30T04:33:53.949Z,34.80
2017-11-30T04:36:21.557Z,35.28
2017-11-30T04:38:49.181Z,36.45
2017-11-30T04:41:17.116Z,34.42
2017-11-30T04:43:45.066Z,39.20
2017-11-30T04:46:12.659Z,38.95
2017-11-30T04:48:40.284Z,35.28
2017-11-30T04:51:08.108Z,33.72
2017-11-30T04:53:35.713Z,36.70
2017-11-30T04:56:03.492Z,34.00
2017-11-30T04:58:31.361Z,40.17
2017-11-30T05:00:59.119Z,38.28
2017-11-30T05:03:26.729Z,36.55
2017-11-30T05:05:54.432Z,39.45
2017-11-30T05:08:22.148Z,37.28
2017-11-30T05:10:49.918Z,33.15
2017-11-30T05:13:17.529Z,41.03
2017-11-30T05:15:45.184Z,39.90
2017-11-30T05:18:13.726Z,40.47
2017-11-30T05:20:42.132Z,35.95
2017-11-30T05:23:10.929Z,36.97
2017-11-30T05:25:39.064Z,35.55
2017-11-30T05:28:06.705Z,38.30
2017-11-30T05:30:34.696Z,34.10
2017-11-30T05:33:02.362Z,36.65
2017-11-30T05:35:29.986Z,36.90
2017-11-30T05:37:58.433Z,37.63
2017-11-30T05:40:26.056Z,36.88
2017-11-30T05:42:53.654Z,36.20
2017-11-30T05:45:21.288Z,38.80
2017-11-30T05:47:48.854Z,36.13
2017-11-30T05:50:16.532Z,38.22
2017-11-30T05:52:44.180Z,39.65
2017-11-30T05:55:13.365Z,40.17
2017-11-30T05:57:40.933Z,40.55
2017-11-30T06:00:08.706Z,40.55
2017-11-30T06:02:36.375Z,41.88
2017-11-30T06:05:04.027Z,38.97
2017-11-30T06:07:32.526Z,41.78
2017-11-30T06:10:00.163Z,38.40
2017-11-30T06:12:27.834Z,36.65
2017-11-30T06:14:55.457Z,40.00
2017-11-30T06:17:23.050Z,37.80
2017-11-30T06:19:51.431Z,37.92
2017-11-30T06:22:19.063Z,34.20
2017-11-30T06:24:47.449Z,36.03
2017-11-30T06:27:15.027Z,41.97
2017-11-30T06:29:42.647Z,38.35
2017-11-30T06:32:10.346Z,39.33
2017-11-30T06:34:37.984Z,40.03
2017-11-30T06:37:06.353Z,39.88
2017-11-30T06:39:34.030Z,42.40
2017-11-30T06:42:01.680Z,44.70
2017-11-30T06:44:29.277Z,43.03
2017-11-30T06:46:57.652Z,42.33
2017-11-30T06:49:25.311Z,44.17
2017-11-30T06:51:52.961Z,41.70
2017-11-30T06:54:20.553Z,41.17
2017-11-30T06:56:48.199Z,41.55
2017-11-30T06:59:15.804Z,37.33
2017-11-30T07:01:43.420Z,39.83
2017-11-30T07:04:11.831Z,47.72
2017-11-30T07:06:39.412Z,50.10
2017-11-30T07:09:07.060Z,39.10
2017-11-30T07:11:34.719Z,41.58
2017-11-30T07:14:02.390Z,42.03
2017-11-30T07:16:30.038Z,42.03
2017-11-30T07:18:57.692Z,40.30
2017-11-30T07:21:25.396Z,41.70
2017-11-30T07:23:53.009Z,42.78
2017-11-30T07:26:24.103Z,39.60
2017-11-30T07:28:51.704Z,46.33
2017-11-30T07:31:19.324Z,40.17
2017-11-30T07:33:48.061Z,41.40
2017-11-30T07:36:15.989Z,42.80
2017-11-30T07:38:43.704Z,43.38
2017-11-30T07:41:11.339Z,43.75
2017-11-30T07:43:39.793Z,42.55
2017-11-30T07:46:07.430Z,41.40
2017-11-30T07:48:35.052Z,39.63
2017-11-30T07:51:02.713Z,37.50
2017-11-30T07:53:30.332Z,40.65
2017-11-30T07:55:57.943Z,38.38
2017-11-30T07:58:25.600Z,40.22
2017-11-30T08:00:53.982Z,41.90
2017-11-30T08:03:21.592Z,43.20
2017-11-30T08:05:49.261Z,44.00
2017-11-30T08:08:16.917Z,41.85
2017-11-30T08:10:44.496Z,38.53
2017-11-30T08:13:12.907Z,42.83
2017-11-30T08:15:40.531Z,45.25
2017-11-30T08:18:08.920Z,42.38
2017-11-30T08:20:36.644Z,46.90
2017-11-30T08:23:04.756Z,41.28
2017-11-30T08:25:32.406Z,48.95
2017-11-30T08:28:00.825Z,44.38
2017-11-30T08:30:28.487Z,48.63
2017-11-30T08:32:56.080Z,48.28
2017-11-30T08:35:23.688Z,49.35
2017-11-30T08:37:52.171Z,49.85
2017-11-30T08:40:19.805Z,43.50
2017-11-30T08:42:47.508Z,46.63
2017-11-30T08:45:15.125Z,46.70
2017-11-30T08:47:42.793Z,44.47
2017-11-30T08:50:10.425Z,42.15
2017-11-30T08:52:38.595Z,43.58
2017-11-30T08:55:06.396Z,38.58
2017-11-30T08:57:33.985Z,40.42
2017-11-30T09:00:02.416Z,43.40
2017-11-30T09:02:30.055Z,40.97
2017-11-30T09:04:57.999Z,38.67
2017-11-30T09:07:25.627Z,43.50
2017-11-30T09:09:53.298Z,38.38
2017-11-30T09:12:21.773Z,37.03
2017-11-30T09:14:50.144Z,41.13
2017-11-30T09:17:17.780Z,42.35
2017-11-30T09:19:45.414Z,38.97
2017-11-30T09:22:13.001Z,44.33
2017-11-30T09:24:40.645Z,38.05
2017-11-30T09:27:08.266Z,37.55
2017-11-30T09:29:35.854Z,34.25
2017-11-30T09:32:03.457Z,34.22
2017-11-30T09:34:31.085Z,34.35
2017-11-30T09:36:58.713Z,29.85
2017-11-30T09:39:27.079Z,33.00
2017-11-30T09:41:54.687Z,30.80
2017-11-30T09:44:22.356Z,32.13
2017-11-30T09:46:50.140Z,30.75
2017-11-30T09:49:17.799Z,28.17
2017-11-30T09:51:45.426Z,28.35
2017-11-30T09:54:13.027Z,28.17
2017-11-30T09:56:40.821Z,27.02
2017-11-30T09:59:08.485Z,23.98
2017-11-30T10:01:36.167Z,23.12
2017-11-30T10:04:03.805Z,25.17
2017-11-30T10:06:31.495Z,21.83
2017-11-30T10:08:59.180Z,23.60
2017-11-30T10:11:26.828Z,24.70
2017-11-30T10:13:54.452Z,25.08
2017-11-30T10:16:22.845Z,23.05
2017-11-30T10:18:51.220Z,25.88
2017-11-30T10:21:19.626Z,24.33
2017-11-30T10:23:47.244Z,25.55
2017-11-30T10:26:15.737Z,27.42
2017-11-30T10:28:43.314Z,24.40
2017-11-30T10:31:10.972Z,27.92
2017-11-30T10:33:39.286Z,28.60
2017-11-30T10:36:06.873Z,32.30
2017-11-30T10:38:34.493Z,29.65
2017-11-30T10:41:02.933Z,27.05
2017-11-30T10:43:30.561Z,31.00
2017-11-30T10:45:59.040Z,32.58
2017-11-30T10:48:26.660Z,28.15
2017-11-30T10:50:54.574Z,33.20
2017-11-30T10:53:22.983Z,30.23
2017-11-30T10:55:50.644Z,29.63
2017-11-30T10:58:18.240Z,28.08
2017-11-30T11:00:45.895Z,33.25
2017-11-30T11:03:13.542Z,27.92
2017-11-30T11:05:41.153Z,27.20
2017-11-30T11:08:09.604Z,26.65
2017-11-30T11:10:37.179Z,27.58
2017-11-30T11:13:05.553Z,25.42
2017-11-30T11:15:33.683Z,23.65
2017-11-30T11:18:01.355Z,25.00
2017-11-30T11:20:28.985Z,24.65
2017-11-30T11:22:56.537Z,24.05
2017-11-30T11:25:24.243Z,23.85
2017-11-30T11:27:51.932Z,22.33
2017-11-30T11:30:20.372Z,24.52
2017-11-30T11:32:48.429Z,21.73
2017-11-30T11:35:16.001Z,19.92
2017-11-30T11:37:43.638Z,21.02
2017-11-30T11:40:11.256Z,17.42
2017-11-30T11:42:38.831Z,15.90
2017-11-30T11:45:06.468Z,16.30
2017-11-30T11:47:34.078Z,15.10
2017-11-30T11:50:01.665Z,11.23
2017-11-30T11:52:30.055Z,13.45
2017-11-30T11:54:57.674Z,13.02
2017-11-30T11:57:25.286Z,14.52
2017-11-30T11:59:52.910Z,13.90
2017-11-30T12:02:21.318Z,14.32
2017-11-30T12:04:49.706Z,14.43
2017-11-30T12:07:18.096Z,15.88
2017-11-30T12:09:45.682Z,15.10
2017-11-30T12:12:13.242Z,15.90
2017-11-30T12:14:40.829Z,13.65
2017-11-30T12:17:08.424Z,16.33
2017-11-30T12:19:36.859Z,17.27
2017-11-30T12:22:04.459Z,14.23
2017-11-30T12:24:32.256Z,13.00
2017-11-30T12:26:59.869Z,16.20
2017-11-30T12:29:27.467Z,13.90
2017-11-30T12:31:55.057Z,13.77
2017-11-30T12:34:22.687Z,15.00
2017-11-30T12:36:51.113Z,14.15
2017-11-30T12:39:19.195Z,13.98
2017-11-30T12:41:47.572Z,14.80
2017-11-30T12:44:15.982Z,8.73
2017-11-30T12:46:43.600Z,12.45
2017-11-30T12:49:11.974Z,9.55
2017-11-30T12:51:39.633Z,11.05
2017-11-30T12:54:08.095Z,7.95
2017-11-30T12:56:35.704Z,8.70
2017-11-30T12:59:04.098Z,9.05
2017-11-30T13:01:31.963Z,10.48
2017-11-30T13:04:00.224Z,8.02
2017-11-30T13:06:27.854Z,7.93
2017-11-30T13:08:55.500Z,9.57
2017-11-30T13:11:23.920Z,9.38
2017-11-30T13:13:51.629Z,10.07
2017-11-30T13:16:19.302Z,10.05
2017-11-30T13:18:47.771Z,8.75
2017-11-30T13:21:16.225Z,11.82
2017-11-30T13:23:43.836Z,10.02
2017-11-30T13:26:12.190Z,11.48
2017-11-30T13:28:39.814Z,16.33
2017-11-30T13:31:07.427Z,12.50
2017-11-30T13:33:36.692Z,13.52
2017-11-30T13:36:04.292Z,12.23
2017-11-30T13:38:32.671Z,13.02
2017-11-30T13:41:01.090Z,12.13
2017-11-30T13:43:28.686Z,11.12
2017-11-30T13:45:56.310Z,13.82
2017-11-30T13:48:23.931Z,11.40
2017-11-30T13:50:52.322Z,12.35
2017-11-30T13:53:19.898Z,15.00
2017-11-30T13:55:47.501Z,14.23
2017-11-30T13:58:21.043Z,12.35
2017-11-30T14:00:48.646Z,15.45
2017-11-30T14:03:17.117Z,13.02
2017-11-30T14:05:45.487Z,13.52
2017-11-30T14:08:13.932Z,13.75
2017-11-30T14:10:41.541Z,13.68
2017-11-30T14:13:09.117Z,11.75
2017-11-30T14:15:37.078Z,15.65
2017-11-30T14:18:04.741Z,14.68
2017-11-30T14:20:32.415Z,15.48
2017-11-30T14:23:00.949Z,13.07
2017-11-30T14:25:28.625Z,13.60
2017-11-30T14:27:57.017Z,13.82
2017-11-30T14:30:24.664Z,14.32
2017-11-30T14:32:53.009Z,12.95
2017-11-30T14:35:20.623Z,12.73
2017-11-30T14:37:48.236Z,15.27
2017-11-30T14:40:16.671Z,12.90
2017-11-30T14:42:44.300Z,12.93
2017-11-30T14:45:12.313Z,15.38
2017-11-30T14:47:39.940Z,15.02
2017-11-30T14:50:08.340Z,15.70
2017-11-30T14:52:36.044Z,15.88
2017-11-30T14:55:03.758Z,18.85
2017-11-30T14:57:31.388Z,17.83
2017-11-30T14:59:59.076Z,17.58
2017-11-30T15:02:27.457Z,19.40
2017-11-30T15:04:55.059Z,18.52
2017-11-30T15:07:22.663Z,18.42
2017-11-30T15:09:50.299Z,18.42
2017-11-30T15:12:18.092Z,20.73
2017-11-30T15:14:45.681Z,20.30
2017-11-30T15:17:13.384Z,18.42
2017-11-30T15:19:41.045Z,20.77
2017-11-30T15:22:08.639Z,17.55
2017-11-30T15:24:36.351Z,20.70
2017-11-30T15:27:04.059Z,21.23
2017-11-30T15:29:31.636Z,19.25
2017-11-30T15:31:59.227Z,16.35
2017-11-30T15:34:26.799Z,19.25
2017-11-30T15:36:54.434Z,15.60
2017-11-30T15:39:22.017Z,18.20
2017-11-30T15:41:49.568Z,16.65
2017-11-30T15:44:17.158Z,20.65
2017-11-30T15:46:44.855Z,16.05
2017-11-30T15:49:13.221Z,16.02
2017-11-30T15:51:40.819Z,15.25
2017-11-30T15:54:08.368Z,14.25
2017-11-30T15:56:35.990Z,13.38
2017-11-30T15:59:03.601Z,15.25
2017-11-30T16:01:31.234Z,17.70
2017-11-30T16:04:00.305Z,15.20
2017-11-30T16:06:27.915Z,16.90
2017-11-30T16:08:55.567Z,16.00
2017-11-30T16:11:23.193Z,16.50
2017-11-30T16:13:51.618Z,14.48
2017-11-30T16:16:19.187Z,15.70
2017-11-30T16:18:46.780Z,15.57
2017-11-30T16:21:14.734Z,15.55
2017-11-30T16:23:42.617Z,18.35
2017-11-30T16:26:10.222Z,16.65
2017-11-30T16:28:37.810Z,16.23
2017-11-30T16:31:05.432Z,19.30
2017-11-30T16:33:33.845Z,15.68
2017-11-30T16:36:01.536Z,12.50
2017-11-30T16:38:29.121Z,10.05
2017-11-30T16:40:56.743Z,6.90
2017-11-30T16:43:24.358Z,8.50
2017-11-30T16:45:51.943Z,6.62
2017-11-30T16:48:19.535Z,5.30
2017-11-30T16:50:47.147Z,6.95
2017-11-30T16:53:14.802Z,4.62
2017-11-30T16:55:42.396Z,3.53
2017-11-30T16:58:09.981Z,4.97
2017-11-30T17:00:38.473Z,4.57
2017-11-30T17:03:06.719Z,4.50
2017-11-30T17:05:34.308Z,4.30
2017-11-30T17:08:02.819Z,4.50
2017-11-30T17:10:30.389Z,3.90
2017-11-30T17:12:58.075Z,4.32
2017-11-30T17:15:25.743Z,4.65
2017-11-30T17:17:53.363Z,4.50
2017-11-30T17:20:21.071Z,4.57
2017-11-30T17:22:48.644Z,4.43
2017-11-30T17:25:17.077Z,4.62
2017-11-30T17:27:44.699Z,4.82
2017-11-30T17:30:12.355Z,4.28
2017-11-30T17:32:40.691Z,5.43
2017-11-30T17:35:08.312Z,4.57
2017-11-30T17:37:36.001Z,3.67
2017-11-30T17:40:03.589Z,4.30
2017-11-30T17:42:31.989Z,5.53
2017-11-30T17:44:59.605Z,5.65
2017-11-30T17:47:27.188Z,4.78
2017-11-30T17:49:55.773Z,4.75
2017-11-30T17:52:24.118Z,4.07
2017-11-30T17:54:51.775Z,5.90
2017-11-30T17:57:19.725Z,5.75
2017-11-30T17:59:47.377Z,6.45
2017-11-30T18:02:15.140Z,6.20
2017-11-30T18:04:42.848Z,9.98
2017-11-30T18:07:10.642Z,8.70
2017-11-30T18:09:38.334Z,9.02
2017-11-30T18:12:06.397Z,8.20
2017-11-30T18:14:34.039Z,9.80
2017-11-30T18:17:01.804Z,10.75
2017-11-30T18:19:29.493Z,11.05
2017-11-30T18:21:58.447Z,23.25
2017-11-30T18:24:26.093Z,13.62
2017-11-30T18:26:54.516Z,16.23
2017-11-30T18:29:22.198Z,15.93
2017-11-30T18:31:49.813Z,16.75
2017-11-30T18:34:18.319Z,16.73
2017-11-30T18:36:46.068Z,15.93
2017-11-30T18:39:13.730Z,20.60
2017-11-30T18:41:41.480Z,31.05
2017-11-30T18:44:09.883Z,27.33
2017-11-30T18:46:37.645Z,26.60
2017-11-30T18:49:05.401Z,48.90
2017-11-30T18:51:34.500Z,37.80
2017-11-30T18:54:02.765Z,23.83
2017-11-30T18:56:30.430Z,36.88
2017-11-30T18:58:58.155Z,26.27
2017-11-30T19:01:25.849Z,27.00
2017-11-30T19:03:53.577Z,29.92
2017-11-30T19:06:21.999Z,25.45
2017-11-30T19:08:49.691Z,23.08
2017-11-30T19:11:17.362Z,15.88
2017-11-30T19:13:44.966Z,16.58
2017-11-30T19:16:12.612Z,17.17
2017-11-30T19:18:40.244Z,21.37
2017-11-30T19:21:08.025Z,19.27
2017-11-30T19:23:35.608Z,17.65
2017-11-30T19:26:05.695Z,21.05
2017-11-30T19:28:33.373Z,24.55
2017-11-30T19:31:00.971Z,26.90
2017-11-30T19:33:29.354Z,23.12
2017-11-30T19:35:56.968Z,24.00
2017-11-30T19:38:26.190Z,23.15
2017-11-30T19:40:54.527Z,23.80
2017-11-30T19:43:22.135Z,22.33
2017-11-30T19:45:50.540Z,28.58
2017-11-30T19:48:18.169Z,26.08
2017-11-30T19:50:45.758Z,30.45
2017-11-30T19:53:13.420Z,28.42
2017-11-30T19:55:41.063Z,28.87
2017-11-30T19:58:09.445Z,29.85
2017-11-30T20:00:37.824Z,29.63
2017-11-30T20:03:06.191Z,29.30
2017-11-30T20:05:33.832Z,28.05
2017-11-30T20:08:01.477Z,27.40
2017-11-30T20:10:29.169Z,28.95
2017-11-30T20:12:56.816Z,45.15
2017-11-30T20:15:24.434Z,45.30
2017-11-30T20:17:52.106Z,47.00
2017-11-30T20:20:19.732Z,43.95
2017-11-30T20:22:48.160Z,36.72
2017-11-30T20:25:15.797Z,40.97
2017-11-30T20:27:43.386Z,37.50
2017-11-30T20:30:11.013Z,54.92
2017-11-30T20:32:39.465Z,53.90
2017-11-30T20:35:07.072Z,38.88
2017-11-30T20:37:34.660Z,31.70
2017-11-30T20:40:02.337Z,30.85
2017-11-30T20:42:30.243Z,37.80
2017-11-30T20:44:57.884Z,34.47
2017-11-30T20:47:25.549Z,31.58
2017-11-30T20:49:54.053Z,34.78
2017-11-30T20:52:21.788Z,32.45
2017-11-30T20:54:49.377Z,31.50
2017-11-30T20:57:17.047Z,30.42
2017-11-30T20:59:44.760Z,31.73
2017-11-30T21:02:12.575Z,32.95
2017-11-30T21:04:40.233Z,32.08
2017-11-30T21:07:07.885Z,33.97
2017-11-30T21:09:35.486Z,31.27
2017-11-30T21:12:03.093Z,31.02
2017-11-30T21:14:30.717Z,30.33
2017-11-30T21:16:58.378Z,29.30
2017-11-30T21:19:25.966Z,31.25
2017-11-30T21:21:54.377Z,30.30
2017-11-30T21:24:21.997Z,30.75
2017-11-30T21:26:49.604Z,29.87
2017-11-30T21:29:17.308Z,30.02
2017-11-30T21:31:44.959Z,28.35
2017-11-30T21:34:12.559Z,28.65
2017-11-30T21:36:40.998Z,29.63
2017-11-30T21:39:08.653Z,29.17
2017-11-30T21:41:36.307Z,31.80
2017-11-30T21:44:03.924Z,31.00
2017-11-30T21:46:31.621Z,31.15
2017-11-30T21:48:59.273Z,33.03
2017-11-30T21:51:26.855Z,29.87
2017-11-30T21:53:54.484Z,28.67
2017-11-30T21:58:56.762Z,28.52
2017-11-30T22:01:24.599Z,30.27
2017-11-30T22:03:52.387Z,28.67
2017-11-30T22:06:20.023Z,28.70
2017-11-30T22:08:47.642Z,30.12
2017-11-30T22:11:15.249Z,28.33
2017-11-30T22:13:42.897Z,31.35
2017-11-30T22:16:10.562Z,31.15
2017-11-30T22:18:38.177Z,28.42
2017-11-30T22:21:05.859Z,30.80
2017-11-30T22:23:33.473Z,29.85
2017-11-30T22:26:01.082Z,32.70
2017-11-30T22:28:28.752Z,30.75
2017-11-30T22:30:57.250Z,31.95
2017-11-30T22:33:24.850Z,30.67
2017-11-30T22:35:52.529Z,28.38
2017-11-30T22:38:20.153Z,29.52
2017-11-30T22:40:47.769Z,31.48
2017-11-30T22:43:15.477Z,29.27
2017-11-30T22:45:43.231Z,30.60
2017-11-30T22:48:10.876Z,29.87
2017-11-30T22:50:38.560Z,31.55
2017-11-30T22:53:06.871Z,26.77
2017-11-30T22:55:34.559Z,29.40
2017-11-30T22:58:02.237Z,29.63
2017-11-30T23:00:41.779Z,29.60
2017-11-30T23:03:10.392Z,26.92
2017-11-30T23:05:38.057Z,28.10
2017-11-30T23:08:05.912Z,28.60
2017-11-30T23:10:35.299Z,27.65
2017-11-30T23:13:02.894Z,27.90
2017-11-30T23:15:30.615Z,27.55
2017-11-30T23:17:59.074Z,27.37
2017-11-30T23:20:26.721Z,29.73
2017-11-30T23:22:54.419Z,26.50
2017-11-30T23:25:22.093Z,28.45
2017-11-30T23:27:50.476Z,27.92
2017-11-30T23:30:18.918Z,27.95
2017-11-30T23:32:46.481Z,29.00
2017-11-30T23:35:14.147Z,29.30
2017-11-30T23:37:41.812Z,28.05
2017-11-30T23:40:09.543Z,27.95
2017-11-30T23:42:37.172Z,29.65
2017-11-30T23:45:05.655Z,29.52
2017-11-30T23:47:34.236Z,31.95
2017-11-30T23:50:02.659Z,28.60
2017-11-30T23:52:30.341Z,29.33
2017-11-30T23:54:57.903Z,28.90
2017-11-30T23:57:25.494Z,29.85
2017-11-30T23:59:53.819Z,29.20
